createdAt,value
2023-02-23T00:02:06.360Z,3.45
2023-02-23T00:04:35.325Z,3.58
2023-02-23T00:07:04.048Z,3.05
2023-02-23T00:09:36.211Z,3.30
2023-02-23T00:12:08.100Z,3.25
2023-02-23T00:14:38.400Z,3.13
2023-02-23T00:17:14.287Z,2.90
2023-02-23T00:19:44.446Z,3.55
2023-02-23T00:22:13.411Z,3.13
2023-02-23T00:24:43.472Z,3.65
2023-02-23T00:27:18.077Z,2.92
2023-02-23T00:29:49.719Z,3.05
2023-02-23T00:32:20.158Z,2.70
2023-02-23T00:34:49.946Z,2.95
2023-02-23T00:37:19.094Z,2.83
2023-02-23T00:39:52.141Z,2.63
2023-02-23T00:42:24.839Z,2.72
2023-02-23T00:44:53.823Z,2.65
2023-02-23T00:47:22.597Z,2.58
2023-02-23T00:49:51.389Z,2.50
2023-02-23T00:52:21.145Z,2.20
2023-02-23T00:54:51.482Z,2.17
2023-02-23T00:57:20.194Z,2.10
2023-02-23T00:59:51.347Z,2.33
2023-02-23T01:02:20.406Z,2.30
2023-02-23T01:04:51.459Z,1.75
2023-02-23T01:07:20.102Z,2.10
2023-02-23T01:09:48.935Z,2.13
2023-02-23T01:12:19.146Z,2.20
2023-02-23T01:14:47.803Z,2.20
2023-02-23T01:17:17.951Z,2.13
2023-02-23T01:19:46.915Z,2.20
2023-02-23T01:22:15.668Z,1.73
2023-02-23T01:24:44.402Z,2.05
2023-02-23T01:27:13.700Z,1.95
2023-02-23T01:29:43.786Z,1.83
2023-02-23T01:32:12.590Z,1.80
2023-02-23T01:34:42.835Z,2.15
2023-02-23T01:37:11.509Z,1.80
2023-02-23T01:39:40.132Z,1.80
2023-02-23T01:42:13.809Z,2.05
2023-02-23T01:45:01.101Z,1.80
2023-02-23T01:47:31.133Z,1.73
2023-02-23T01:50:02.129Z,1.73
2023-02-23T01:52:30.902Z,2.10
2023-02-23T01:54:59.543Z,2.10
2023-02-23T01:57:28.245Z,2.00
2023-02-23T01:59:57.498Z,2.03
2023-02-23T02:02:33.522Z,2.00
2023-02-23T02:05:06.755Z,1.77
2023-02-23T02:07:36.447Z,2.00
2023-02-23T02:10:22.835Z,1.92
2023-02-23T02:12:55.582Z,2.08
2023-02-23T02:15:26.159Z,2.22
2023-02-23T02:18:03.333Z,2.28
2023-02-23T02:20:38.602Z,1.80
2023-02-23T02:23:14.923Z,2.00
2023-02-23T02:25:58.817Z,2.38
2023-02-23T02:28:57.579Z,1.98
2023-02-23T02:31:37.399Z,1.85
2023-02-23T02:34:27.179Z,1.85
2023-02-23T02:37:08.180Z,1.90
2023-02-23T02:39:39.718Z,1.95
2023-02-23T02:42:15.085Z,2.08
2023-02-23T02:44:50.814Z,2.15
2023-02-23T02:47:21.427Z,1.80
2023-02-23T02:49:53.478Z,1.90
2023-02-23T02:52:26.255Z,2.25
2023-02-23T02:54:56.572Z,1.83
2023-02-23T02:57:27.094Z,1.88
2023-02-23T03:00:14.110Z,2.03
2023-02-23T03:03:01.008Z,2.05
2023-02-23T03:05:53.768Z,1.95
2023-02-23T03:08:49.629Z,2.03
2023-02-23T03:11:35.863Z,1.83
2023-02-23T03:14:31.615Z,2.17
2023-02-23T03:17:22.410Z,2.13
2023-02-23T03:20:13.969Z,2.00
2023-02-23T03:23:04.861Z,1.83
2023-02-23T03:26:01.096Z,1.50
2023-02-23T03:28:50.910Z,1.83
2023-02-23T03:31:40.587Z,2.13
2023-02-23T03:34:30.639Z,2.20
2023-02-23T03:37:20.260Z,2.65
2023-02-23T03:40:11.225Z,2.05
2023-02-23T03:42:59.895Z,1.98
2023-02-23T03:45:47.596Z,2.30
2023-02-23T03:48:35.634Z,2.03
2023-02-23T03:51:23.965Z,2.08
2023-02-23T03:54:11.465Z,2.40
2023-02-23T03:56:59.317Z,2.20
2023-02-23T03:59:50.625Z,2.35
2023-02-23T04:02:38.052Z,2.20
2023-02-23T04:05:25.975Z,2.05
2023-02-23T04:08:13.514Z,2.28
2023-02-23T04:11:04.115Z,2.20
2023-02-23T04:13:32.399Z,2.10
2023-02-23T04:16:02.750Z,2.63
2023-02-23T04:18:32.752Z,1.92
2023-02-23T04:21:02.042Z,2.50
2023-02-23T04:23:31.245Z,2.20
2023-02-23T04:26:00.161Z,2.03
2023-02-23T04:28:29.581Z,2.42
2023-02-23T04:30:58.416Z,2.33
2023-02-23T04:33:28.482Z,2.13
2023-02-23T04:35:57.213Z,1.95
2023-02-23T04:38:26.093Z,2.10
2023-02-23T04:40:54.799Z,2.60
2023-02-23T04:43:23.500Z,2.47
2023-02-23T04:45:52.277Z,2.33
2023-02-23T04:48:21.017Z,2.55
2023-02-23T04:50:53.745Z,2.70
2023-02-23T04:53:22.377Z,2.25
2023-02-23T04:55:51.452Z,2.58
2023-02-23T04:58:20.115Z,2.45
2023-02-23T05:00:49.756Z,2.35
2023-02-23T05:03:18.597Z,2.60
2023-02-23T05:05:47.275Z,2.80
2023-02-23T05:08:17.442Z,2.60
2023-02-23T05:10:48.205Z,2.63
2023-02-23T05:13:17.058Z,2.70
2023-02-23T05:15:45.889Z,2.50
2023-02-23T05:18:14.489Z,2.38
2023-02-23T05:20:45.786Z,2.30
2023-02-23T05:23:14.588Z,2.45
2023-02-23T05:25:44.622Z,2.50
2023-02-23T05:28:13.292Z,2.38
2023-02-23T05:30:42.176Z,2.88
2023-02-23T05:33:11.016Z,2.67
2023-02-23T05:35:42.575Z,2.50
2023-02-23T05:38:11.375Z,2.92
2023-02-23T05:40:40.357Z,2.88
2023-02-23T05:43:10.423Z,2.60
2023-02-23T05:45:42.482Z,2.70
2023-02-23T05:48:11.206Z,2.60
2023-02-23T05:50:40.309Z,2.28
2023-02-23T05:53:08.995Z,2.70
2023-02-23T05:55:38.137Z,2.60
2023-02-23T05:58:07.238Z,2.45
2023-02-23T06:00:37.409Z,2.40
2023-02-23T06:03:06.291Z,2.65
2023-02-23T06:05:34.890Z,2.10
2023-02-23T06:08:03.659Z,2.50
2023-02-23T06:10:32.434Z,2.42
2023-02-23T06:13:01.146Z,2.25
2023-02-23T06:15:30.108Z,2.55
2023-02-23T06:18:00.251Z,2.13
2023-02-23T06:20:28.845Z,2.50
2023-02-23T06:22:57.799Z,2.53
2023-02-23T06:25:26.692Z,2.42
2023-02-23T06:27:55.444Z,2.42
2023-02-23T06:30:24.035Z,2.78
2023-02-23T06:32:52.742Z,3.00
2023-02-23T06:35:25.660Z,3.20
2023-02-23T06:37:54.378Z,2.50
2023-02-23T06:40:23.333Z,2.83
2023-02-23T06:42:55.273Z,2.60
2023-02-23T06:45:23.957Z,2.47
2023-02-23T06:47:53.743Z,2.30
2023-02-23T06:50:23.772Z,2.60
2023-02-23T06:52:52.556Z,2.15
2023-02-23T06:55:21.411Z,2.17
2023-02-23T06:57:51.579Z,1.95
2023-02-23T07:00:20.942Z,2.00
2023-02-23T07:02:50.851Z,2.05
2023-02-23T07:05:21.795Z,2.22
2023-02-23T07:07:52.136Z,2.22
2023-02-23T07:10:21.288Z,2.00
2023-02-23T07:12:50.017Z,2.55
2023-02-23T07:15:22.283Z,2.25
2023-02-23T07:17:52.778Z,2.80
2023-02-23T07:20:24.203Z,2.17
2023-02-23T07:22:54.911Z,2.15
2023-02-23T07:25:23.625Z,2.50
2023-02-23T07:27:54.153Z,1.92
2023-02-23T07:30:24.476Z,2.50
2023-02-23T07:32:53.210Z,2.22
2023-02-23T07:35:22.201Z,2.03
2023-02-23T07:37:50.889Z,2.42
2023-02-23T07:40:21.358Z,2.33
2023-02-23T07:42:50.108Z,1.80
2023-02-23T07:45:18.771Z,1.80
2023-02-23T07:47:47.437Z,2.20
2023-02-23T07:50:16.095Z,2.58
2023-02-23T07:52:45.291Z,2.00
2023-02-23T07:55:14.225Z,2.03
2023-02-23T07:57:44.574Z,1.92
2023-02-23T08:00:13.904Z,2.15
2023-02-23T08:02:42.783Z,1.92
2023-02-23T08:05:11.662Z,2.00
2023-02-23T08:07:40.608Z,1.88
2023-02-23T08:10:09.686Z,1.70
2023-02-23T08:12:38.450Z,2.03
2023-02-23T08:15:09.136Z,1.88
2023-02-23T08:17:37.818Z,1.45
2023-02-23T08:20:07.213Z,1.70
2023-02-23T08:22:48.312Z,1.70
2023-02-23T08:25:17.315Z,1.80
2023-02-23T08:27:45.998Z,1.58
2023-02-23T08:30:16.767Z,1.77
2023-02-23T08:32:45.458Z,1.35
2023-02-23T08:35:14.181Z,1.58
2023-02-23T08:37:42.983Z,1.60
2023-02-23T08:40:15.638Z,1.80
2023-02-23T08:42:44.486Z,1.60
2023-02-23T08:45:13.671Z,1.52
2023-02-23T08:47:43.865Z,1.85
2023-02-23T08:50:14.153Z,1.83
2023-02-23T08:52:43.569Z,1.77
2023-02-23T08:55:13.984Z,1.80
2023-02-23T08:57:42.832Z,2.08
2023-02-23T09:00:16.750Z,2.13
2023-02-23T09:02:50.675Z,1.85
2023-02-23T09:05:19.860Z,2.03
2023-02-23T09:07:52.247Z,2.50
2023-02-23T09:10:24.851Z,2.13
2023-02-23T09:12:53.571Z,2.05
2023-02-23T09:15:22.801Z,2.08
2023-02-23T09:17:54.533Z,2.20
2023-02-23T09:20:26.744Z,2.10
2023-02-23T09:22:55.404Z,1.80
2023-02-23T09:25:25.160Z,1.83
2023-02-23T09:27:56.438Z,2.90
2023-02-23T09:30:25.143Z,2.63
2023-02-23T09:32:55.995Z,2.80
2023-02-23T09:35:25.893Z,2.53
2023-02-23T09:37:56.109Z,2.65
2023-02-23T09:40:27.278Z,2.50
2023-02-23T09:43:00.348Z,2.42
2023-02-23T09:45:34.795Z,2.72
2023-02-23T09:48:11.125Z,3.00
2023-02-23T09:50:40.603Z,2.90
2023-02-23T09:53:12.721Z,2.58
2023-02-23T09:55:41.877Z,2.45
2023-02-23T09:58:18.355Z,2.58
2023-02-23T10:00:49.872Z,2.67
2023-02-23T10:03:21.501Z,2.80
2023-02-23T10:05:53.934Z,2.85
2023-02-23T10:08:26.202Z,2.85
2023-02-23T10:11:00.171Z,2.75
2023-02-23T10:13:33.826Z,2.85
2023-02-23T10:16:05.799Z,2.60
2023-02-23T10:18:46.677Z,2.50
2023-02-23T10:21:18.818Z,2.75
2023-02-23T10:23:50.018Z,2.53
2023-02-23T10:26:20.700Z,2.38
2023-02-23T10:28:50.732Z,2.10
2023-02-23T10:31:26.441Z,2.45
2023-02-23T10:33:57.566Z,2.35
2023-02-23T10:36:31.485Z,2.45
2023-02-23T10:39:00.188Z,2.22
2023-02-23T10:41:28.913Z,2.55
2023-02-23T10:44:05.080Z,2.40
2023-02-23T10:46:41.607Z,2.47
2023-02-23T10:49:17.495Z,2.40
2023-02-23T10:51:46.884Z,2.33
2023-02-23T10:54:34.062Z,2.40
2023-02-23T10:57:03.065Z,2.05
2023-02-23T10:59:31.775Z,2.78
2023-02-23T11:02:02.742Z,2.20
2023-02-23T11:04:35.024Z,2.67
2023-02-23T11:07:09.031Z,2.58
2023-02-23T11:09:46.442Z,2.70
2023-02-23T11:12:21.927Z,2.22
2023-02-23T11:14:51.068Z,2.65
2023-02-23T11:17:28.339Z,2.65
2023-02-23T11:20:02.722Z,2.47
2023-02-23T11:22:36.834Z,2.60
2023-02-23T11:25:14.894Z,2.65
2023-02-23T11:27:47.785Z,2.80
2023-02-23T11:30:16.561Z,2.78
2023-02-23T11:32:45.566Z,3.00
2023-02-23T11:35:28.207Z,2.40
2023-02-23T11:37:57.123Z,2.65
2023-02-23T11:40:27.179Z,2.60
2023-02-23T11:42:58.357Z,2.80
2023-02-23T11:45:28.020Z,2.97
2023-02-23T11:47:59.421Z,2.50
2023-02-23T11:50:32.610Z,2.78
2023-02-23T11:53:03.611Z,2.40
2023-02-23T11:55:33.404Z,2.78
2023-02-23T11:58:13.432Z,2.60
2023-02-23T12:00:42.250Z,2.50
2023-02-23T12:03:21.701Z,2.70
2023-02-23T12:06:02.488Z,2.75
2023-02-23T12:08:37.366Z,2.08
2023-02-23T12:11:07.588Z,2.55
2023-02-23T12:13:38.712Z,2.40
2023-02-23T12:16:09.858Z,2.58
2023-02-23T12:18:41.149Z,2.40
2023-02-23T12:21:17.509Z,2.67
2023-02-23T12:23:50.369Z,2.88
2023-02-23T12:26:22.769Z,2.45
2023-02-23T12:28:58.769Z,2.55
2023-02-23T12:31:30.017Z,2.88
2023-02-23T12:34:01.105Z,2.42
2023-02-23T12:36:35.353Z,2.53
2023-02-23T12:39:06.941Z,2.88
2023-02-23T12:41:37.943Z,2.75
2023-02-23T12:44:13.465Z,2.90
2023-02-23T12:46:47.635Z,2.45
2023-02-23T12:49:21.188Z,2.83
2023-02-23T12:51:52.804Z,2.40
2023-02-23T12:54:23.875Z,2.83
2023-02-23T12:56:56.815Z,2.65
2023-02-23T12:59:35.996Z,2.70
2023-02-23T13:02:08.654Z,2.83
2023-02-23T13:04:49.101Z,2.88
2023-02-23T13:07:22.453Z,2.90
2023-02-23T13:09:57.625Z,2.85
2023-02-23T13:12:31.971Z,2.83
2023-02-23T13:15:04.784Z,2.58
2023-02-23T13:17:38.646Z,3.10
2023-02-23T13:20:11.436Z,2.80
2023-02-23T13:22:47.329Z,2.92
2023-02-23T13:25:22.622Z,2.92
2023-02-23T13:27:57.378Z,2.95
2023-02-23T13:30:26.245Z,2.75
2023-02-23T13:32:57.072Z,2.85
2023-02-23T13:35:26.879Z,3.00
2023-02-23T13:37:59.997Z,3.15
2023-02-23T13:40:33.273Z,2.80
2023-02-23T13:43:07.652Z,3.10
2023-02-23T13:45:43.449Z,2.83
2023-02-23T13:48:18.690Z,2.63
2023-02-23T13:50:52.226Z,2.80
2023-02-23T13:53:34.854Z,2.70
2023-02-23T13:56:06.852Z,2.65
2023-02-23T13:58:36.222Z,2.90
2023-02-23T14:01:06.607Z,2.85
2023-02-23T14:03:37.696Z,3.30
2023-02-23T14:06:07.902Z,2.90
2023-02-23T14:08:39.143Z,2.97
2023-02-23T14:11:08.495Z,3.13
2023-02-23T14:13:41.592Z,2.95
2023-02-23T14:16:15.498Z,3.30
2023-02-23T14:18:56.779Z,3.30
2023-02-23T14:21:30.801Z,3.45
2023-02-23T14:24:15.192Z,3.20
2023-02-23T14:26:46.295Z,3.00
2023-02-23T14:29:32.019Z,3.30
2023-02-23T14:32:05.745Z,3.15
2023-02-23T14:34:50.185Z,3.03
2023-02-23T14:37:26.370Z,3.00
2023-02-23T14:39:57.399Z,3.15
2023-02-23T14:42:27.837Z,3.67
2023-02-23T14:44:57.290Z,3.50
2023-02-23T14:47:28.398Z,3.50
2023-02-23T14:49:59.082Z,3.92
2023-02-23T14:52:29.191Z,3.63
2023-02-23T14:55:08.863Z,3.40
2023-02-23T14:57:38.251Z,3.92
2023-02-23T15:00:13.706Z,3.58
2023-02-23T15:02:53.775Z,3.60
2023-02-23T15:05:25.022Z,3.45
2023-02-23T15:07:54.532Z,3.45
2023-02-23T15:10:27.970Z,3.88
2023-02-23T15:12:57.432Z,3.95
2023-02-23T15:15:27.003Z,3.78
2023-02-23T15:17:57.438Z,3.33
2023-02-23T15:20:32.588Z,3.40
2023-02-23T15:23:03.586Z,3.72
2023-02-23T15:25:38.475Z,3.53
2023-02-23T15:28:20.458Z,3.05
2023-02-23T15:30:49.969Z,3.45
2023-02-23T15:33:23.664Z,3.17
2023-02-23T15:35:54.079Z,3.30
2023-02-23T15:38:42.412Z,3.28
2023-02-23T15:41:17.631Z,3.33
2023-02-23T15:43:47.417Z,3.13
2023-02-23T15:46:24.107Z,3.10
2023-02-23T15:48:53.950Z,3.10
2023-02-23T15:51:24.542Z,3.45
2023-02-23T15:53:53.576Z,3.17
2023-02-23T15:56:25.582Z,2.80
2023-02-23T15:58:57.147Z,2.95
2023-02-23T16:01:27.406Z,3.17
2023-02-23T16:04:02.121Z,3.03
2023-02-23T16:06:35.212Z,3.00
2023-02-23T16:09:05.899Z,3.33
2023-02-23T16:11:37.484Z,3.00
2023-02-23T16:14:06.912Z,3.30
2023-02-23T16:16:36.979Z,2.92
2023-02-23T16:19:06.301Z,3.38
2023-02-23T16:21:35.350Z,3.00
2023-02-23T16:24:09.026Z,3.22
2023-02-23T16:26:43.324Z,3.03
2023-02-23T16:29:18.579Z,3.00
2023-02-23T16:31:48.616Z,3.00
2023-02-23T16:34:26.791Z,3.03
2023-02-23T16:37:00.066Z,3.05
2023-02-23T16:39:30.357Z,3.10
2023-02-23T16:42:00.764Z,2.78
2023-02-23T16:44:43.059Z,3.00
2023-02-23T16:47:14.276Z,2.97
2023-02-23T16:49:43.041Z,3.05
2023-02-23T16:52:20.863Z,3.50
2023-02-23T16:54:54.506Z,3.53
2023-02-23T16:57:26.977Z,3.15
2023-02-23T16:59:57.621Z,2.97
2023-02-23T17:02:26.459Z,3.00
2023-02-23T17:04:59.004Z,3.22
2023-02-23T17:07:27.846Z,2.80
2023-02-23T17:09:56.417Z,3.03
2023-02-23T17:12:26.502Z,2.92
2023-02-23T17:14:55.799Z,2.80
2023-02-23T17:17:25.257Z,2.88
2023-02-23T17:19:54.045Z,3.10
2023-02-23T17:22:22.775Z,3.30
2023-02-23T17:24:51.535Z,3.17
2023-02-23T17:27:20.290Z,2.95
2023-02-23T17:29:53.456Z,3.38
2023-02-23T17:32:24.348Z,3.60
2023-02-23T17:34:53.521Z,3.53
2023-02-23T17:37:22.305Z,3.30
2023-02-23T17:39:51.069Z,3.40
2023-02-23T17:42:20.385Z,3.53
2023-02-23T17:44:50.679Z,3.83
2023-02-23T17:47:20.661Z,3.75
2023-02-23T17:49:51.485Z,3.70
2023-02-23T17:52:20.470Z,3.50
2023-02-23T17:54:49.434Z,3.58
2023-02-23T17:57:18.078Z,3.25
2023-02-23T17:59:47.045Z,3.72
2023-02-23T18:02:18.231Z,3.78
2023-02-23T18:04:47.214Z,3.30
2023-02-23T18:07:16.115Z,3.60
2023-02-23T18:09:45.131Z,3.72
2023-02-23T18:12:13.843Z,3.83
2023-02-23T18:14:42.704Z,3.92
2023-02-23T18:17:11.509Z,3.65
2023-02-23T18:19:41.554Z,3.63
2023-02-23T18:22:10.183Z,3.47
2023-02-23T18:24:39.515Z,3.85
2023-02-23T18:27:08.215Z,4.13
2023-02-23T18:29:37.648Z,3.40
2023-02-23T18:32:07.901Z,3.30
2023-02-23T18:34:37.722Z,3.38
2023-02-23T18:37:10.235Z,3.20
2023-02-23T18:39:39.214Z,3.60
2023-02-23T18:42:08.111Z,4.18
2023-02-23T18:44:36.785Z,4.13
2023-02-23T18:47:05.411Z,3.75
2023-02-23T18:49:34.110Z,3.92
2023-02-23T18:52:05.476Z,4.28
2023-02-23T18:54:35.605Z,4.35
2023-02-23T18:57:05.684Z,4.38
2023-02-23T18:59:34.686Z,4.15
2023-02-23T19:02:03.435Z,4.20
2023-02-23T19:04:32.264Z,4.43
2023-02-23T19:07:00.987Z,4.13
2023-02-23T19:09:29.632Z,3.95
2023-02-23T19:11:59.852Z,4.53
2023-02-23T19:14:47.890Z,4.75
2023-02-23T19:17:17.394Z,4.63
2023-02-23T19:19:46.120Z,4.88
2023-02-23T19:22:14.786Z,4.80
2023-02-23T19:24:43.612Z,4.65
2023-02-23T19:27:15.369Z,4.85
2023-02-23T19:29:43.982Z,4.72
2023-02-23T19:32:13.103Z,4.93
2023-02-23T19:34:41.866Z,4.70
2023-02-23T19:37:10.746Z,4.53
2023-02-23T19:39:39.399Z,4.55
2023-02-23T19:42:09.142Z,4.80
2023-02-23T19:44:39.333Z,4.75
2023-02-23T19:47:09.542Z,4.80
2023-02-23T19:49:38.302Z,4.85
2023-02-23T19:52:07.127Z,4.72
2023-02-23T19:54:37.969Z,4.57
2023-02-23T19:57:06.611Z,5.20
2023-02-23T19:59:35.209Z,5.07
2023-02-23T20:02:05.571Z,5.25
2023-02-23T20:04:34.452Z,5.78
2023-02-23T20:07:03.573Z,5.40
2023-02-23T20:09:32.240Z,4.68
2023-02-23T20:12:00.992Z,4.53
2023-02-23T20:14:29.690Z,5.63
2023-02-23T20:16:58.472Z,4.78
2023-02-23T20:19:28.945Z,4.57
2023-02-23T20:21:57.549Z,5.80
2023-02-23T20:24:26.221Z,4.10
2023-02-23T20:26:56.957Z,4.18
2023-02-23T20:29:28.076Z,3.85
2023-02-23T20:31:59.885Z,3.20
2023-02-23T20:34:30.130Z,2.90
2023-02-23T20:36:58.937Z,3.20
2023-02-23T20:39:27.867Z,3.63
2023-02-23T20:41:56.478Z,3.72
2023-02-23T20:44:28.090Z,4.30
2023-02-23T20:46:56.884Z,4.68
2023-02-23T20:49:27.387Z,5.65
2023-02-23T20:51:57.615Z,4.15
2023-02-23T20:54:26.273Z,3.45
2023-02-23T20:57:07.618Z,3.53
2023-02-23T20:59:36.973Z,3.55
2023-02-23T21:02:05.765Z,3.83
2023-02-23T21:04:35.923Z,3.50
2023-02-23T21:07:07.030Z,4.15
2023-02-23T21:09:35.774Z,3.88
2023-02-23T21:12:04.780Z,3.97
2023-02-23T21:14:35.348Z,3.95
2023-02-23T21:17:04.304Z,4.18
2023-02-23T21:19:33.307Z,3.47
2023-02-23T21:22:01.890Z,3.72
2023-02-23T21:24:34.690Z,3.85
2023-02-23T21:27:05.317Z,3.67
2023-02-23T21:29:34.162Z,3.50
2023-02-23T21:32:02.943Z,3.42
2023-02-23T21:34:32.895Z,3.17
2023-02-23T21:37:01.770Z,3.63
2023-02-23T21:39:31.891Z,3.22
2023-02-23T21:42:00.934Z,3.70
2023-02-23T21:44:29.626Z,3.50
2023-02-23T21:46:58.312Z,3.47
2023-02-23T21:49:26.940Z,3.60
2023-02-23T21:51:55.544Z,3.72
2023-02-23T21:54:24.167Z,3.97
2023-02-23T21:56:54.306Z,4.10
2023-02-23T21:59:23.037Z,3.72
2023-02-23T22:01:54.735Z,3.30
2023-02-23T22:04:23.556Z,3.83
2023-02-23T22:06:52.164Z,3.45
2023-02-23T22:09:20.858Z,3.70
2023-02-23T22:11:50.687Z,3.35
2023-02-23T22:14:22.276Z,2.95
2023-02-23T22:16:51.102Z,3.53
2023-02-23T22:19:20.205Z,3.42
2023-02-23T22:21:49.036Z,3.55
2023-02-23T22:24:17.908Z,2.85
2023-02-23T22:26:54.395Z,2.90
2023-02-23T22:29:25.288Z,2.97
2023-02-23T22:31:54.192Z,2.60
2023-02-23T22:34:23.048Z,3.20
2023-02-23T22:36:51.847Z,3.03
2023-02-23T22:39:21.048Z,3.22
2023-02-23T22:41:49.886Z,3.30
2023-02-23T22:44:21.300Z,2.80
2023-02-23T22:46:53.039Z,2.80
2023-02-23T22:49:21.945Z,2.63
2023-02-23T22:51:51.763Z,3.17
2023-02-23T22:54:24.360Z,3.00
2023-02-23T22:56:53.445Z,2.92
2023-02-23T22:59:22.131Z,3.20
2023-02-23T23:01:56.468Z,2.83
2023-02-23T23:04:26.242Z,3.30
2023-02-23T23:06:54.956Z,3.03
2023-02-23T23:09:23.563Z,2.70
2023-02-23T23:11:52.344Z,3.00
2023-02-23T23:14:21.143Z,2.70
2023-02-23T23:16:50.687Z,3.10
2023-02-23T23:19:24.251Z,3.10
2023-02-23T23:21:55.068Z,3.05
2023-02-23T23:24:24.344Z,3.33
2023-02-23T23:26:55.607Z,3.13
2023-02-23T23:29:30.558Z,3.65
2023-02-23T23:32:01.031Z,3.72
2023-02-23T23:34:33.679Z,3.58
2023-02-23T23:37:02.750Z,3.97
2023-02-23T23:39:31.540Z,3.80
2023-02-23T23:42:01.843Z,3.53
2023-02-23T23:44:30.887Z,3.50
2023-02-23T23:46:59.830Z,4.35
2023-02-23T23:49:28.537Z,3.45
2023-02-23T23:51:58.758Z,3.63
2023-02-23T23:54:28.224Z,3.38
2023-02-23T23:56:57.260Z,3.28
2023-02-23T23:59:27.237Z,3.60
